EGXW

RAF Waddington Airport

Waddington, United Kingdom
METAR EGXW 210450Z 25003KT 9999 SCT038 OVC045 18/16 Q1018 BLU
Observed Flight Rules
Aug-21 @ 04:50 UTC (9 hours ago) Visual Flight Rules
Wind Visibility Clouds
250° at 3 knots 10,000+ meters
  • Scattered at 3,800' AGL
  • Overcast at 4,500' AGL
Temperatures Readings
Current 18°C / 64°F
Dewpoint 16°C / 61°F
Humidity 88%
Altimeter 30.06" Hg
Pressure 1018 hPa
Elevation 70
METAR EGXW 210450Z 25003KT 9999 SCT038 OVC045 18/16 Q1018 BLU
Observed Flight Rules
Aug-21 @ 04:50 UTC
(9 hours ago)
VFR
Wind Visibility
250° at 3 knots 10,000+ meters
Clouds
  • Scattered at 3,800' AGL
  • Overcast at 4,500' AGL
Temperature Dewpoint
18°C / 64°F 16°C / 61°F
Humidity Altimeter Pressure
88% 30.06" Hg 1018 hPa